Terminal Aerodrome Forecast
Issued by NWS New Orleans/Baton Rouge, LA

Home | Current Version | Previous Version | Text Only | Print | Product List | Glossary On
Versions: 1 2 3 4 5 6 7 8 9 10 11 12
782
FTUS44 KLIX 242320
TAFBTR
TAF
KBTR 242320Z 2500/2524 10009KT P6SM SCT045
     FM250900 14004KT P6SM BKN020
      TEMPO 2512/2514 BKN010
     FM251400 15008KT P6SM BKN025
     FM251600 16009KT P6SM BKN035=

USA.gov is the U.S. government's official web portal to all federal, state and local government web resources and services.